Time;durP1;ratioP1;P1;durP2;ratioP2;P2;SDS_P1;SDS_P2;PMS_P1;PMS_P2;Temp;Humidity;BMP_temperature;BMP_pressure;BME280_temperature;BME280_humidity;BME280_pressure;Samples;Min_cycle;Max_cycle;Signal;HPM_P1;HPM_P2
2024/02/05 00:00:37;;;;;;;4.00;2.60;;;;;;;7.20;100.00;99588.86;110118;1264;23181;-80
2024/02/05 00:03:14;;;;;;;2.80;2.10;;;;;;;7.24;100.00;99584.56;110138;1264;22002;-78
2024/02/05 00:06:13;;;;;;;5.40;3.00;;;;;;;7.23;100.00;99586.32;110404;1264;22618;-80
2024/02/05 00:08:48;;;;;;;4.90;2.90;;;;;;;7.24;100.00;99585.08;111207;1254;21992;-80
2024/02/05 00:12:01;;;;;;;3.90;2.90;;;;;;;7.21;100.00;99580.48;111454;1248;21958;-80
2024/02/05 00:14:48;;;;;;;3.70;2.80;;;;;;;7.20;100.00;99582.42;111597;1248;24306;-81
2024/02/05 00:18:09;;;;;;;2.80;2.30;;;;;;;7.18;100.00;99575.08;111359;1253;21968;-80
2024/02/05 00:20:45;;;;;;;4.10;2.80;;;;;;;7.19;100.00;99571.24;111271;1248;22006;-80
2024/02/05 00:23:22;;;;;;;4.90;2.90;;;;;;;7.18;100.00;99572.13;111810;1249;22012;-80
2024/02/05 00:26:08;;;;;;;3.40;2.60;;;;;;;7.19;100.00;99567.94;111615;1249;21969;-79
2024/02/05 00:28:55;;;;;;;2.70;2.20;;;;;;;7.17;100.00;99566.66;111907;1249;21984;-80
2024/02/05 00:31:49;;;;;;;;;;;;;;;;;;;;;
2024/02/05 00:35:01;;;;;;;5.20;2.40;;;;;;;7.12;100.00;99564.05;111514;1253;21978;-82
2024/02/05 00:38:52;;;;;;;4.90;2.70;;;;;;;7.07;100.00;99560.94;111336;1253;22075;-79
2024/02/05 00:41:43;;;;;;;3.40;2.50;;;;;;;7.07;100.00;99552.46;111574;1250;21966;-81
2024/02/05 00:44:18;;;;;;;3.30;2.40;;;;;;;7.07;100.00;99548.48;111308;1250;23709;-82
2024/02/05 00:46:55;;;;;;;2.90;2.00;;;;;;;7.09;100.00;99542.73;111625;1250;22717;-82
2024/02/05 00:49:34;;;;;;;3.60;2.30;;;;;;;7.09;100.00;99537.52;111578;1249;23687;-81
2024/02/05 00:52:12;;;;;;;4.50;1.90;;;;;;;7.09;100.00;99543.77;111945;1244;21957;-78
2024/02/05 00:54:58;;;;;;;1.80;1.60;;;;;;;7.06;100.00;99546.63;112156;1244;23062;-80
2024/02/05 00:57:43;;;;;;;3.70;2.00;;;;;;;7.04;100.00;99542.20;112150;1244;23576;-81
2024/02/05 01:00:23;;;;;;;2.50;1.70;;;;;;;7.01;100.00;99544.20;112277;1243;23639;-80
2024/02/05 01:02:57;;;;;;;2.20;1.70;;;;;;;6.97;100.00;99542.80;112034;1244;21953;-80
2024/02/05 01:05:35;;;;;;;2.50;2.00;;;;;;;6.96;100.00;99536.23;112194;1244;21962;-80
2024/02/05 01:08:30;;;;;;;2.70;1.80;;;;;;;6.93;100.00;99536.20;112145;1245;23710;-78
2024/02/05 01:11:55;;;;;;;;;;;;;;;;;;;;;
2024/02/05 01:14:59;;;;;;;2.70;2.00;;;;;;;6.89;100.00;99520.58;112277;1245;21951;-79
2024/02/05 01:17:51;;;;;;;1.80;1.40;;;;;;;6.90;100.00;99512.27;112189;1244;21968;-79
2024/02/05 01:20:53;;;;;;;2.80;1.30;;;;;;;6.90;100.00;99510.36;112012;1245;21969;-77
2024/02/05 01:23:48;;;;;;;3.20;1.50;;;;;;;6.89;100.00;99497.77;111987;1245;22950;-80
2024/02/05 01:26:54;;;;;;;5.70;1.60;;;;;;;6.87;100.00;99487.45;112605;1240;21973;-80
2024/02/05 01:29:56;;;;;;;2.30;1.40;;;;;;;6.81;100.00;99480.41;112044;1245;22826;-80
2024/02/05 01:32:37;;;;;;;1.60;1.30;;;;;;;6.84;100.00;99487.92;111352;1250;22729;-80
2024/02/05 01:36:00;;;;;;;2.80;1.40;;;;;;;6.81;100.00;99479.20;111534;1250;22167;-81
2024/02/05 01:39:22;;;;;;;;;;;;;;;;;;;;;
2024/02/05 01:42:13;;;;;;;2.40;1.30;;;;;;;6.79;100.00;99467.88;111713;1250;23694;-81
2024/02/05 01:45:06;;;;;;;3.30;1.60;;;;;;;6.78;100.00;99463.57;111549;1250;21957;-80
2024/02/05 01:47:55;;;;;;;1.40;1.20;;;;;;;6.80;100.00;99459.34;111144;1256;22443;-80
2024/02/05 01:50:38;;;;;;;3.00;1.70;;;;;;;6.81;100.00;99454.64;111434;1251;21969;-79
2024/02/05 01:53:27;;;;;;;2.00;1.60;;;;;;;6.82;100.00;99443.73;111422;1253;23342;-80
2024/02/05 01:56:32;;;;;;;3.80;1.50;;;;;;;6.72;100.00;99425.21;111239;1253;22727;-80
2024/02/05 01:59:43;;;;;;;2.40;1.50;;;;;;;6.72;100.00;99419.35;110707;1259;22221;-78
2024/02/05 02:03:04;;;;;;;5.70;1.50;;;;;;;6.75;100.00;99427.18;110774;1259;22012;-78
2024/02/05 02:06:00;;;;;;;1.90;1.40;;;;;;;6.74;100.00;99430.66;110921;1253;21994;-79
2024/02/05 02:08:48;;;;;;;2.20;1.60;;;;;;;6.76;100.00;99430.25;111658;1250;22676;-78
2024/02/05 02:11:59;;;;;;;2.60;1.60;;;;;;;6.71;100.00;99424.56;111233;1254;23701;-78
2024/02/05 02:15:08;;;;;;;2.10;1.80;;;;;;;6.70;100.00;99423.56;111398;1254;21960;-81
2024/02/05 02:18:30;;;;;;;;;;;;;;;;;;;;;
2024/02/05 02:26:30;;;;;;;3.60;1.60;;;;;;;6.77;100.00;99423.86;110982;1259;22000;-81
2024/02/05 02:29:37;;;;;;;2.20;1.40;;;;;;;6.82;100.00;99419.49;111062;1255;22883;-80
2024/02/05 02:34:01;;;;;;;;;;;;;;;;;;;;;
2024/02/05 02:38:44;;;;;;;;;;;;;;;;;;;;;
2024/02/05 02:42:00;;;;;;;3.60;1.40;;;;;;;6.74;100.00;99413.56;109917;1268;22024;-80
2024/02/05 02:45:40;;;;;;;;;;;;;;;;;;;;;
2024/02/05 02:48:36;;;;;;;3.50;1.90;;;;;;;6.77;100.00;99404.65;109029;1273;22285;-81
2024/02/05 03:13:44;;;;;;;2.10;1.40;;;;;;;8.58;100.00;99396.58;110699;1261;373361;-80
2024/02/05 03:17:26;;;;;;;1.50;1.30;;;;;;;8.12;100.00;99393.91;113458;1229;23005;-81
2024/02/05 03:35:06;;;;;;;2.60;1.50;;;;;;;7.13;100.00;99390.80;110209;1267;21992;-78
2024/02/05 03:39:02;;;;;;;2.80;1.20;;;;;;;7.11;100.00;99384.15;109254;1273;21977;-78
2024/02/05 04:01:44;;;;;;;;;;;;;;;;;;;;;
2024/02/05 04:06:33;;;;;;;3.30;2.60;;;;;;;7.87;100.00;99377.26;109803;1271;22671;-81
2024/02/05 04:10:52;;;;;;;3.80;3.40;;;;;;;7.61;100.00;99376.42;109431;1273;23614;-78
2024/02/05 04:14:22;;;;;;;3.40;2.90;;;;;;;7.50;100.00;99377.25;108524;1283;22160;-80
2024/02/05 04:18:01;;;;;;;52.60;45.20;;;;;;;7.44;100.00;99370.55;108286;1289;22057;-78
2024/02/05 04:21:03;;;;;;;6.70;5.20;;;;;;;7.35;100.00;99361.07;108161;1289;22065;-80
2024/02/05 04:43:41;;;;;;;;;;;;;;;;;;;;;
2024/02/05 04:48:22;;;;;;;;;;;;;;;;;;;;;
2024/02/05 04:52:34;;;;;;;;;;;;;;;;;;;;;
2024/02/05 04:56:18;;;;;;;11.10;9.90;;;;;;;7.83;100.00;99351.65;109912;1269;22826;-78
2024/02/05 05:01:33;;;;;;;;;;;;;;;;;;;;;
2024/02/05 05:20:46;;;;;;;;;;;;;;;;;;;;;
2024/02/05 05:24:03;;;;;;;4.10;3.10;;;;;;;9.08;100.00;99314.79;106187;1245;8048210;-79
2024/02/05 05:28:21;;;;;;;3.60;3.30;;;;;;;8.53;100.00;99318.58;112176;1245;21967;-78
2024/02/05 05:31:16;;;;;;;4.60;3.80;;;;;;;8.16;100.00;99323.88;112583;1241;21959;-80
2024/02/05 05:34:30;;;;;;;5.30;3.90;;;;;;;8.00;100.00;99329.24;112556;1235;21948;-80
2024/02/05 05:37:58;;;;;;;;;;;;;;;;;;;;;
2024/02/05 05:42:17;;;;;;;5.00;2.40;;;;;;;7.79;100.00;99339.15;111070;1257;22436;-80
2024/02/05 05:46:23;;;;;;;4.10;3.00;;;;;;;7.76;100.00;99342.04;111060;1256;22883;-78
2024/02/05 05:50:01;;;;;;;2.50;2.00;;;;;;;7.74;100.00;99351.30;110068;1268;23041;-80
2024/02/05 05:53:42;;;;;;;;;;;;;;;;;;;;;
2024/02/05 05:56:51;;;;;;;;;;;;;;;;;;;;;
2024/02/05 05:59:57;;;;;;;3.00;2.40;;;;;;;7.77;100.00;99362.61;108714;1277;22000;-79
2024/02/05 06:03:19;;;;;;;;;;;;;;;;;;;;;
2024/02/05 06:06:39;;;;;;;2.80;1.80;;;;;;;7.78;100.00;99359.09;109123;1270;22762;-79
2024/02/05 06:09:44;;;;;;;1.40;0.80;;;;;;;7.75;100.00;99356.83;109945;1269;23094;-80
2024/02/05 06:12:23;;;;;;;1.30;0.80;;;;;;;7.81;100.00;99366.97;109967;1269;24344;-81
2024/02/05 06:15:25;;;;;;;1.90;1.10;;;;;;;7.82;100.00;99371.09;110210;1267;21973;-80
2024/02/05 06:18:58;;;;;;;1.80;1.60;;;;;;;7.82;100.00;99375.41;109804;1267;22219;-80
2024/02/05 06:22:08;;;;;;;2.70;1.40;;;;;;;7.80;100.00;99382.91;109908;1266;24396;-80
2024/02/05 06:26:05;;;;;;;2.20;1.60;;;;;;;7.82;100.00;99399.31;110706;1260;22052;-78
2024/02/05 06:30:09;;;;;;;;;;;;;;;;;;;;;
2024/02/05 06:33:50;;;;;;;2.10;1.60;;;;;;;7.83;100.00;99402.39;111501;1252;21967;-79
2024/02/05 06:37:37;;;;;;;2.50;1.50;;;;;;;7.83;100.00;99408.77;110895;1257;22023;-79
2024/02/05 06:41:40;;;;;;;4.40;3.00;;;;;;;7.84;100.00;99408.23;110976;1257;21986;-79
2024/02/05 06:45:35;;;;;;;;;;;;;;;;;;;;;
2024/02/05 06:52:39;;;;;;;;;;;;;;;;;;;;;
2024/02/05 06:55:27;;;;;;;5.10;3.60;;;;;;;7.85;100.00;99419.42;110178;1260;22202;-77
2024/02/05 06:58:42;;;;;;;6.90;4.30;;;;;;;7.86;100.00;99423.73;110747;1255;23731;-77
2024/02/05 07:02:13;;;;;;;;;;;;;;;;;;;;;
2024/02/05 07:06:25;;;;;;;7.20;4.70;;;;;;;7.86;100.00;99442.61;111624;1250;21990;-77
2024/02/05 07:13:40;;;;;;;;;;;;;;;;;;;;;
2024/02/05 07:17:03;;;;;;;3.50;2.70;;;;;;;7.94;100.00;99457.86;109564;1269;21995;-78
2024/02/05 07:20:16;;;;;;;;;;;;;;;;;;;;;
2024/02/05 07:23:49;;;;;;;;;;;;;;;;;;;;;
2024/02/05 07:26:59;;;;;;;9.80;7.20;;;;;;;8.05;100.00;99473.03;109488;1271;21989;-80
2024/02/05 07:30:12;;;;;;;14.80;9.90;;;;;;;8.08;100.00;99472.05;109339;1270;21987;-77
2024/02/05 07:33:26;;;;;;;8.60;6.70;;;;;;;8.13;100.00;99475.62;109379;1270;21980;-78
2024/02/05 07:36:19;;;;;;;9.50;5.80;;;;;;;8.18;100.00;99477.48;109522;1270;22452;-79
2024/02/05 07:39:07;;;;;;;;;;;;;;;;;;;;;
2024/02/05 07:41:48;;;;;;;21.30;13.90;;;;;;;8.22;100.00;99486.52;109578;1268;22151;-78
2024/02/05 07:44:31;;;;;;;15.20;9.80;;;;;;;8.24;100.00;99484.36;110353;1264;21982;-77
2024/02/05 07:48:01;;;;;;;;;;;;;;;;;;;;;
2024/02/05 07:51:47;;;;;;;;;;;;;;;;;;;;;
2024/02/05 07:56:08;;;;;;;;;;;;;;;;;;;;;
2024/02/05 07:59:51;;;;;;;7.50;4.60;;;;;;;8.33;100.00;99500.45;110625;1257;21974;-79
2024/02/05 08:11:56;;;;;;;5.20;2.80;;;;;;;8.39;100.00;99502.65;109649;1269;23050;-77
2024/02/05 08:15:40;;;;;;;5.00;2.70;;;;;;;8.34;100.00;99502.00;109562;1268;23820;-76
2024/02/05 08:21:33;;;;;;;7.70;4.20;;;;;;;8.23;100.00;99509.55;110314;1264;23728;-77
2024/02/05 08:24:46;;;;;;;;;;;;;;;;;;;;;
2024/02/05 08:27:56;;;;;;;2.60;1.50;;;;;;;8.13;100.00;99514.45;110223;1264;21984;-77
2024/02/05 08:31:31;;;;;;;2.60;1.60;;;;;;;8.03;100.00;99512.46;110373;1260;22958;-79
2024/02/05 08:35:03;;;;;;;3.20;1.90;;;;;;;7.91;100.00;99519.15;110635;1260;22005;-79
2024/02/05 08:38:32;;;;;;;;;;;;;;;7.85;100.00;99521.48;110744;1254;21965;-77
2024/02/05 08:41:48;;;;;;;2.90;1.60;;;;;;;7.72;100.00;99528.39;111328;1254;22048;-79
2024/02/05 08:45:20;;;;;;;;;;;;;;;;;;;;;
2024/02/05 08:49:14;;;;;;;4.20;2.40;;;;;;;7.72;100.00;99535.49;112601;1241;21957;-77
2024/02/05 08:52:30;;;;;;;;;;;;;;;;;;;;;
2024/02/05 08:55:52;;;;;;;4.20;2.20;;;;;;;7.67;100.00;99535.19;112915;1234;21936;-77
2024/02/05 08:58:51;;;;;;;5.10;2.20;;;;;;;7.74;100.00;99532.14;113440;1230;22939;-79
2024/02/05 09:02:38;;;;;;;4.20;2.40;;;;;;;7.77;100.00;99517.98;113014;1239;23688;-75
2024/02/05 09:06:39;;;;;;;4.80;3.10;;;;;;;7.92;100.00;99536.98;112078;1244;23734;-77
2024/02/05 09:11:02;;;;;;;8.80;5.20;;;;;;;8.04;100.00;99544.96;111878;1249;22027;-78
2024/02/05 09:14:37;;;;;;;5.10;3.80;;;;;;;8.10;100.00;99541.09;111137;1254;23343;-75
2024/02/05 09:18:32;;;;;;;7.40;5.70;;;;;;;8.24;100.00;99545.75;111222;1254;21978;-76
2024/02/05 09:22:32;;;;;;;;;;;;;;;;;;;;;
2024/02/05 09:26:02;;;;;;;8.00;5.20;;;;;;;8.45;100.00;99544.02;109897;1268;21999;-79
2024/02/05 09:29:28;;;;;;;4.90;2.90;;;;;;;8.64;100.00;99545.12;110301;1263;21977;-79
2024/02/05 09:33:51;;;;;;;;;;;;;;;;;;;;;
2024/02/05 09:38:23;;;;;;;;;;;;;;;;;;;;;
2024/02/05 09:42:35;;;;;;;5.20;2.20;;;;;;;8.74;100.00;99552.02;110025;1268;23810;-77
2024/02/05 09:53:46;;;;;;;;;;;;;;;;;;;;;
2024/02/05 10:11:18;;;;;;;5.40;2.70;;;;;;;8.36;100.00;99557.37;109924;1257;21985;-75
2024/02/05 10:14:51;;;;;;;4.30;2.90;;;;;;;8.29;100.00;99560.05;109365;1274;22471;-78
2024/02/05 10:22:49;;;;;;;4.40;2.30;;;;;;;8.19;100.00;99571.21;101124;1282;22045;-76
2024/02/05 10:27:17;;;;;;;2.80;2.20;;;;;;;8.18;100.00;99567.97;108592;1284;22009;-75
2024/02/05 10:30:51;;;;;;;3.50;2.10;;;;;;;8.20;100.00;99564.95;107630;1297;22029;-75
2024/02/05 10:34:24;;;;;;;7.30;2.90;;;;;;;8.23;100.00;99562.39;107406;1298;22021;-77
2024/02/05 10:37:48;;;;;;;3.00;1.80;;;;;;;8.22;100.00;99560.88;106801;1301;22025;-77
2024/02/05 10:40:52;;;;;;;;;;;;;;;;;;;;;
2024/02/05 10:44:08;;;;;;;;;;;;;;;;;;;;;
2024/02/05 10:47:19;;;;;;;5.90;3.60;;;;;;;8.30;100.00;99552.44;107279;1294;22098;-78
2024/02/05 10:50:18;;;;;;;4.30;3.00;;;;;;;8.28;100.00;99552.33;107905;1292;23767;-76
2024/02/05 10:53:48;;;;;;;3.30;2.20;;;;;;;8.26;100.00;99547.72;108167;1292;23770;-76
2024/02/05 10:57:53;;;;;;;3.40;2.60;;;;;;;8.24;100.00;99537.22;107896;1292;23066;-77
2024/02/05 11:00:23;;;;;;;3.90;3.10;;;;;;;8.27;100.00;99532.77;108302;1286;21996;-78
2024/02/05 11:03:56;;;;;;;6.10;3.10;;;;;;;8.28;100.00;99533.06;108509;1286;23095;-79
2024/02/05 11:07:30;;;;;;;6.70;3.90;;;;;;;8.28;100.00;99537.77;107875;1288;22002;-77
2024/02/05 11:11:09;;;;;;;;;;;;;;;;;;;;;
2024/02/05 11:14:30;;;;;;;;;;;;;;;;;;;;;
2024/02/05 11:22:15;;;;;;;;;;;;;;;;;;;;;
2024/02/05 11:25:47;;;;;;;5.50;3.40;;;;;;;8.47;100.00;99532.31;107629;1294;22399;-77
2024/02/05 11:28:40;;;;;;;3.70;3.30;;;;;;;8.49;100.00;99528.96;107687;1296;22770;-80
2024/02/05 11:32:05;;;;;;;;;;;;;;;;;;;;;
2024/02/05 11:36:10;;;;;;;;;;;;;;;;;;;;;
2024/02/05 11:39:10;;;;;;;;;;;;;;;;;;;;;
2024/02/05 11:42:17;;;;;;;7.50;4.70;;;;;;;8.52;100.00;99525.19;107707;1293;23097;-76
2024/02/05 11:50:06;;;;;;;;;;;;;;;;;;;;;
2024/02/05 11:54:59;;;;;;;;;;;;;;;;;;;;;
2024/02/05 11:59:53;;;;;;;;;;;;;;;;;;;;;
2024/02/05 12:10:34;;;;;;;17.40;5.90;;;;;;;8.70;100.00;99512.45;107108;1302;24460;-80
2024/02/05 12:13:33;;;;;;;;;;;;;;;;;;;;;
2024/02/05 12:17:28;;;;;;;11.60;7.80;;;;;;;8.68;100.00;99499.35;107037;1296;22049;-79
2024/02/05 12:32:04;;;;;;;8.40;5.50;;;;;;;10.07;100.00;99509.75;111391;1251;547622;-77
2024/02/05 12:36:25;;;;;;;6.80;5.50;;;;;;;9.90;100.00;99501.52;110181;1248;2420719;-79
2024/02/05 12:39:47;;;;;;;;;;;;;;;;;;;;;
2024/02/05 12:42:37;;;;;;;10.20;5.60;;;;;;;9.15;100.00;99516.00;112132;1244;23589;-80
2024/02/05 12:45:26;;;;;;;10.20;7.40;;;;;;;9.09;100.00;99519.91;112113;1244;21953;-80
2024/02/05 12:48:12;;;;;;;12.40;8.70;;;;;;;9.05;100.00;99515.43;112317;1244;21946;-81
2024/02/05 12:50:47;;;;;;;9.10;7.00;;;;;;;8.99;100.00;99507.70;112600;1244;21943;-77
2024/02/05 12:54:06;;;;;;;11.30;8.60;;;;;;;8.88;100.00;99506.44;111973;1244;24334;-76
2024/02/05 13:01:19;;;;;;;;;;;;;;;;;;;;;
2024/02/05 13:05:27;;;;;;;;;;;;;;;;;;;;;
2024/02/05 13:09:35;;;;;;;7.70;4.50;;;;;;;8.39;100.00;99507.31;113297;1236;23072;-78
2024/02/05 13:13:46;;;;;;;6.80;4.80;;;;;;;8.35;100.00;99501.95;113641;1229;23713;-77
2024/02/05 13:22:36;;;;;;;;;;;;;;;;;;;;;
2024/02/05 13:26:33;;;;;;;11.30;6.70;;;;;;;8.55;100.00;99504.23;111344;1252;21980;-78
2024/02/05 13:30:09;;;;;;;12.10;7.00;;;;;;;8.62;100.00;99504.13;110949;1257;22978;-80
2024/02/05 13:34:20;;;;;;;9.90;7.20;;;;;;;8.61;100.00;99505.52;110413;1263;23049;-78
2024/02/05 13:38:08;;;;;;;;;;;;;;;;;;;;;
2024/02/05 13:41:39;;;;;;;11.20;8.20;;;;;;;8.63;100.00;99500.95;109447;1270;21983;-79
2024/02/05 13:44:57;;;;;;;8.50;6.70;;;;;;;8.65;100.00;99489.59;109822;1267;21987;-80
2024/02/05 13:47:58;;;;;;;;;;;;;;;;;;;;;
2024/02/05 13:51:16;;;;;;;;;;;;;;;8.76;100.00;99495.90;110241;1264;21947;-77
2024/02/05 13:55:19;;;;;;;;;;;;;;;;;;;;;
2024/02/05 13:58:14;;;;;;;11.20;4.40;;;;;;;8.86;100.00;99507.25;110529;1257;23023;-79
2024/02/05 14:06:47;;;;;;;8.40;7.20;;;;;;;8.79;100.00;99510.85;111010;1256;21957;-78
2024/02/05 14:11:19;;;;;;;;;;;;;;;;;;;;;
2024/02/05 14:15:34;;;;;;;7.70;6.10;;;;;;;8.63;100.00;99530.63;110513;1266;21979;-80
2024/02/05 14:18:42;;;;;;;7.60;6.40;;;;;;;8.60;100.00;99533.52;110607;1262;21967;-80
2024/02/05 14:21:26;;;;;;;8.90;6.40;;;;;;;8.58;100.00;99537.56;110238;1268;21990;-77
2024/02/05 14:24:43;;;;;;;7.30;5.90;;;;;;;8.61;100.00;99533.14;110032;1262;22830;-78
2024/02/05 14:28:07;;;;;;;6.20;5.00;;;;;;;8.62;100.00;99530.83;109905;1268;22736;-77
2024/02/05 14:34:20;;;;;;;9.40;6.00;;;;;;;8.61;100.00;99518.23;109028;1277;23502;-82
2024/02/05 14:37:16;;;;;;;9.60;7.00;;;;;;;8.63;100.00;99519.84;109045;1277;21973;-80
2024/02/05 14:39:59;;;;;;;11.80;7.10;;;;;;;8.71;100.00;99522.48;108914;1277;21996;-80
2024/02/05 14:43:14;;;;;;;;;;;;;;;;;;;;;
2024/02/05 14:55:52;;;;;;;12.70;6.10;;;;;;;8.94;100.00;99529.10;109959;1270;23917;-80
2024/02/05 15:02:40;;;;;;;11.50;5.20;;;;;;;9.21;100.00;99541.61;111026;1260;23451;-78
2024/02/05 15:14:34;;;;;;;5.70;3.70;;;;;;;9.31;100.00;99547.06;111146;1260;22004;-82
2024/02/05 15:23:42;;;;;;;;;;;;;;;;;;;;;
2024/02/05 15:44:01;;;;;;;;;;;;;;;;;;;;;
2024/02/05 15:47:18;;;;;;;6.70;4.50;;;;;;;10.03;100.00;99555.01;110391;1267;22001;-78
2024/02/05 15:50:47;;;;;;;;;;;;;;;;;;;;;
2024/02/05 15:57:54;;;;;;;12.50;8.50;;;;;;;9.54;100.00;99577.77;108613;1283;21997;-79
2024/02/05 16:12:19;;;;;;;11.80;7.00;;;;;;;10.69;100.00;99580.47;108271;1282;548803;-80
2024/02/05 16:16:04;;;;;;;;;;;;;;;;;;;;;
2024/02/05 16:19:08;;;;;;;;;;;;;;;9.91;100.00;99589.60;110592;1263;22154;-81
2024/02/05 16:22:12;;;;;;;13.50;6.50;;;;;;;9.53;100.00;99594.30;110500;1265;22718;-84
2024/02/05 16:26:32;;;;;;;;;;;;;;;;;;;;;
2024/02/05 16:30:30;;;;;;;;;;;;;;;;;;;;;
2024/02/05 16:33:40;;;;;;;12.80;7.00;;;;;;;9.10;100.00;99597.45;108998;1281;21992;-79
2024/02/05 16:37:09;;;;;;;;;;;;;;;;;;;;;
2024/02/05 16:42:12;;;;;;;;;;;;;;;;;;;;;
2024/02/05 16:45:18;;;;;;;;;;;;;;;;;;;;;
2024/02/05 16:48:43;;;;;;;12.00;7.90;;;;;;;8.99;100.00;99606.28;107821;1296;23416;-78
2024/02/05 16:52:41;;;;;;;22.10;9.00;;;;;;;8.96;100.00;99602.42;107813;1294;22029;-78
2024/02/05 16:56:46;;;;;;;20.80;9.50;;;;;;;8.87;100.00;99590.13;108005;1291;23644;-80
2024/02/05 17:00:46;;;;;;;;;;;;;;;;;;;;;
2024/02/05 17:04:07;;;;;;;20.80;8.90;;;;;;;8.97;100.00;99608.44;107432;1299;21575;-79
2024/02/05 17:11:35;;;;;;;19.80;11.30;;;;;;;8.93;100.00;99606.54;107915;1289;22404;-78
2024/02/05 17:14:49;;;;;;;24.60;12.90;;;;;;;9.02;100.00;99617.94;108206;1295;22162;-79
2024/02/05 17:18:04;;;;;;;;;;;;;;;;;;;;;
2024/02/05 17:21:19;;;;;;;;;;;;;;;;;;;;;
2024/02/05 17:25:14;;;;;;;;;;;;;;;;;;;;;
2024/02/05 17:33:30;;;;;;;28.90;10.60;;;;;;;9.06;100.00;99618.63;108213;1291;22002;-80
2024/02/05 17:37:22;;;;;;;;;;;;;;;;;;;;;
2024/02/05 17:40:54;;;;;;;;;;;;;;;;;;;;;
2024/02/05 17:43:47;;;;;;;24.50;11.80;;;;;;;9.06;100.00;99629.04;108536;1286;21847;-81
2024/02/05 17:47:06;;;;;;;;;;;;;;;;;;;;;
2024/02/05 17:54:53;;;;;;;20.30;8.10;;;;;;;9.11;100.00;99615.83;108944;1280;22028;-84
2024/02/05 17:58:15;;;;;;;21.80;8.90;;;;;;;9.25;100.00;99623.54;108610;1284;22022;-81
2024/02/05 18:01:26;;;;;;;24.70;15.90;;;;;;;9.29;100.00;99622.84;108519;1284;23752;-81
2024/02/05 18:05:05;;;;;;;;;;;;;;;;;;;;;
2024/02/05 18:09:58;;;;;;;;;;;;;;;;;;;;;
2024/02/05 18:12:58;;;;;;;;;;;;;;;;;;;;;
2024/02/05 18:21:21;;;;;;;;;;;;;;;;;;;;;
2024/02/05 18:28:55;;;;;;;19.50;8.80;;;;;;;9.41;100.00;99618.66;107935;1293;22021;-79
2024/02/05 18:33:14;;;;;;;;;;;;;;;;;;;;;
2024/02/05 18:36:33;;;;;;;;;;;;;;;;;;;;;
2024/02/05 18:39:59;;;;;;;20.50;8.10;;;;;;;9.46;100.00;99619.13;108068;1289;22002;-80
2024/02/05 18:43:37;;;;;;;24.90;9.00;;;;;;;9.47;100.00;99619.60;107936;1299;23001;-81
2024/02/05 19:02:26;;;;;;;;;;;;;;;;;;;;;
2024/02/05 19:07:20;;;;;;;;;;;;;;;;;;;;;
2024/02/05 19:11:19;;;;;;;;;;;;;;;;;;;;;
2024/02/05 19:19:15;;;;;;;19.60;7.90;;;;;;;9.91;100.00;99608.07;108018;1293;22220;-81
2024/02/05 19:22:32;;;;;;;;;;;;;;;;;;;;;
2024/02/05 19:39:59;;;;;;;17.20;6.80;;;;;;;11.39;100.00;99590.74;111616;1258;21989;-81
2024/02/05 19:44:22;;;;;;;;;;;;;;;;;;;;;
2024/02/05 19:48:08;;;;;;;19.30;8.20;;;;;;;10.38;100.00;99587.06;111213;1259;22002;-81
2024/02/05 19:51:48;;;;;;;16.00;8.80;;;;;;;10.07;100.00;99573.95;110926;1263;21987;-81
2024/02/05 19:59:06;;;;;;;23.30;8.90;;;;;;;10.00;100.00;99576.50;110082;1268;21990;-81
2024/02/05 20:02:07;;;;;;;;;;;;;;;;;;;;;
2024/02/05 20:12:09;;;;;;;24.50;10.30;;;;;;;9.81;100.00;99570.79;108916;1281;23695;-82
2024/02/05 20:26:15;;;;;;;;;;;;;;;;;;;;;
2024/02/05 20:30:25;;;;;;;;;;;;;;;;;;;;;
2024/02/05 20:34:23;;;;;;;;;;;;;;;;;;;;;
2024/02/05 20:38:28;;;;;;;;;;;;;;;;;;;;;
2024/02/05 20:42:21;;;;;;;22.00;7.90;;;;;;;10.00;100.00;99576.18;108604;1289;23165;-82
2024/02/05 20:45:48;;;;;;;18.40;8.90;;;;;;;9.92;100.00;99577.58;108397;1289;22145;-80
2024/02/05 20:49:10;;;;;;;21.40;8.20;;;;;;;9.89;100.00;99580.33;107690;1294;22029;-81
2024/02/05 20:53:31;;;;;;;;;;;;;;;;;;;;;
2024/02/05 20:56:19;;;;;;;19.40;8.00;;;;;;;9.80;100.00;99582.14;107864;1296;23064;-79
2024/02/05 20:59:52;;;;;;;;;;;;;;;;;;;;;
2024/02/05 21:04:09;;;;;;;22.00;9.00;;;;;;;9.70;100.00;99579.48;107681;1296;22028;-80
2024/02/05 21:07:16;;;;;;;22.30;7.90;;;;;;;9.70;100.00;99587.13;106873;1288;22061;-78
2024/02/05 21:10:33;;;;;;;17.60;8.20;;;;;;;9.70;100.00;99582.45;107279;1301;22020;-77
2024/02/05 21:14:18;;;;;;;;;;;;;;;;;;;;;
2024/02/05 21:17:28;;;;;;;;;;;;;;;;;;;;;
2024/02/05 21:24:09;;;;;;;19.90;9.50;;;;;;;9.83;100.00;99583.60;108104;1291;23728;-81
2024/02/05 21:27:05;;;;;;;20.20;9.10;;;;;;;9.82;100.00;99583.44;108650;1286;22338;-82
2024/02/05 21:34:02;;;;;;;23.40;9.10;;;;;;;9.73;100.00;99582.63;107998;1292;21886;-83
2024/02/05 21:37:32;;;;;;;25.90;9.30;;;;;;;9.70;100.00;99578.95;108047;1294;22016;-81
2024/02/05 21:40:53;;;;;;;20.00;8.80;;;;;;;9.72;100.00;99578.02;107728;1294;23663;-83
2024/02/05 21:48:33;;;;;;;19.40;9.60;;;;;;;9.72;100.00;99584.11;108333;1289;22005;-80
2024/02/05 21:52:18;;;;;;;;;;;;;;;;;;;;;
2024/02/05 21:55:53;;;;;;;;;;;;;;;;;;;;;
2024/02/05 21:59:10;;;;;;;;;;;;;;;;;;;;;
2024/02/05 22:02:13;;;;;;;;;;;;;;;;;;;;;
2024/02/05 22:05:08;;;;;;;24.70;9.40;;;;;;;9.71;100.00;99585.33;108406;1285;23085;-80
2024/02/05 22:07:42;;;;;;;19.40;9.60;;;;;;;9.76;100.00;99586.85;108824;1279;22000;-80
2024/02/05 22:10:29;;;;;;;22.80;10.70;;;;;;;9.79;100.00;99587.23;109113;1268;22013;-79
2024/02/05 22:13:07;;;;;;;22.40;10.00;;;;;;;9.78;100.00;99586.21;110122;1267;22968;-79
2024/02/05 22:16:00;;;;;;;23.60;8.60;;;;;;;9.77;100.00;99588.70;109527;1270;21983;-82
2024/02/05 22:22:31;;;;;;;17.90;8.90;;;;;;;9.74;100.00;99579.96;110526;1264;23599;-74
2024/02/05 22:25:34;;;;;;;;;;;;;;;9.80;100.00;99573.48;110693;1263;21999;-80
2024/02/05 22:28:18;;;;;;;23.80;9.30;;;;;;;9.74;100.00;99579.46;110353;1264;22721;-79
2024/02/05 22:31:24;;;;;;;16.70;8.50;;;;;;;9.76;100.00;99577.66;110887;1259;22775;-80
2024/02/05 22:34:16;;;;;;;22.90;9.30;;;;;;;9.76;100.00;99572.05;110986;1259;21991;-80
2024/02/05 22:40:34;;;;;;;16.70;8.70;;;;;;;9.73;100.00;99568.37;109416;1273;22009;-80
2024/02/05 22:46:26;;;;;;;21.90;8.60;;;;;;;9.65;100.00;99559.40;109561;1270;21983;-80
2024/02/05 22:49:07;;;;;;;22.50;8.80;;;;;;;9.61;100.00;99562.54;109545;1270;21992;-80
2024/02/05 22:52:14;;;;;;;22.90;10.10;;;;;;;9.72;100.00;99583.75;109833;1270;22157;-78
2024/02/05 22:54:58;;;;;;;20.30;10.00;;;;;;;9.73;100.00;99586.98;109255;1270;22017;-79
2024/02/05 22:57:50;;;;;;;24.10;8.80;;;;;;;9.68;100.00;99575.60;109490;1263;23103;-79
2024/02/05 23:03:14;;;;;;;22.20;10.10;;;;;;;9.65;100.00;99580.04;110557;1263;21986;-81
2024/02/05 23:06:09;;;;;;;25.70;10.60;;;;;;;9.66;100.00;99580.34;110357;1263;22000;-79
2024/02/05 23:09:12;;;;;;;21.40;11.00;;;;;;;9.77;100.00;99596.88;110742;1263;21978;-80
2024/02/05 23:12:01;;;;;;;25.50;11.10;;;;;;;9.75;100.00;99600.09;110960;1246;22307;-79
2024/02/05 23:14:31;;;;;;;25.80;10.70;;;;;;;9.77;100.00;99602.63;111071;1256;22003;-79
2024/02/05 23:17:14;;;;;;;22.30;10.10;;;;;;;9.80;100.00;99607.89;111191;1257;21985;-80
2024/02/05 23:20:08;;;;;;;22.10;9.90;;;;;;;9.80;100.00;99608.23;111076;1257;22039;-80
2024/02/05 23:22:52;;;;;;;25.40;11.50;;;;;;;9.79;100.00;99608.41;111121;1257;22061;-79
2024/02/05 23:25:39;;;;;;;24.10;11.00;;;;;;;9.78;100.00;99604.65;110521;1265;21994;-80
2024/02/05 23:28:15;;;;;;;24.90;10.20;;;;;;;9.76;100.00;99599.70;110461;1265;21977;-80
2024/02/05 23:31:16;;;;;;;21.40;9.70;;;;;;;9.67;100.00;99583.11;109516;1271;23670;-79
2024/02/05 23:33:56;;;;;;;21.50;10.00;;;;;;;9.67;100.00;99585.55;109781;1271;22140;-79
2024/02/05 23:37:05;;;;;;;24.90;9.90;;;;;;;9.51;100.00;99557.93;109528;1271;22769;-80
2024/02/05 23:39:54;;;;;;;22.50;9.10;;;;;;;9.68;100.00;99573.86;109712;1270;21984;-79
2024/02/05 23:43:05;;;;;;;21.50;9.90;;;;;;;9.78;100.00;99590.22;109505;1271;22010;-77
2024/02/05 23:45:45;;;;;;;22.10;10.30;;;;;;;9.77;100.00;99587.68;109866;1270;21985;-80
2024/02/05 23:48:31;;;;;;;19.80;10.10;;;;;;;9.70;100.00;99582.44;109739;1265;22047;-79
2024/02/05 23:51:17;;;;;;;20.90;9.90;;;;;;;9.74;100.00;99594.09;110408;1265;21959;-80
2024/02/05 23:53:58;;;;;;;24.40;10.00;;;;;;;9.74;100.00;99589.89;110263;1265;21984;-80
2024/02/05 23:56:43;;;;;;;18.80;9.70;;;;;;;9.72;100.00;99583.56;110472;1262;21994;-78
2024/02/05 23:59:17;;;;;;;17.50;8.90;;;;;;;9.79;100.00;99591.92;110570;1262;23624;-78
